sensor_id;sensor_type;location;lat;lon;timestamp;pressure;altitude;pressure_sealevel;temperature
74539;BMP180;66042;51.090;-115.340;2024-01-25T00:01:45;85673.60;;;4.50
74539;BMP180;66042;51.090;-115.340;2024-01-25T00:04:12;85666.00;;;4.42
74539;BMP180;66042;51.090;-115.340;2024-01-25T00:06:39;85666.80;;;4.40
74539;BMP180;66042;51.090;-115.340;2024-01-25T00:09:06;85668.60;;;4.40
74539;BMP180;66042;51.090;-115.340;2024-01-25T00:11:35;85673.60;;;4.40
74539;BMP180;66042;51.090;-115.340;2024-01-25T00:14:02;85670.00;;;4.38
74539;BMP180;66042;51.090;-115.340;2024-01-25T00:16:29;85668.00;;;4.30
74539;BMP180;66042;51.090;-115.340;2024-01-25T00:18:56;85666.60;;;4.26
74539;BMP180;66042;51.090;-115.340;2024-01-25T00:21:23;85666.00;;;4.20
74539;BMP180;66042;51.090;-115.340;2024-01-25T00:23:50;85670.40;;;4.10
74539;BMP180;66042;51.090;-115.340;2024-01-25T00:26:17;85670.60;;;4.00
74539;BMP180;66042;51.090;-115.340;2024-01-25T00:28:43;85674.60;;;4.00
74539;BMP180;66042;51.090;-115.340;2024-01-25T00:31:10;85667.60;;;3.90
74539;BMP180;66042;51.090;-115.340;2024-01-25T00:33:37;85673.00;;;3.80
74539;BMP180;66042;51.090;-115.340;2024-01-25T00:36:06;85669.40;;;3.76
74539;BMP180;66042;51.090;-115.340;2024-01-25T00:38:34;85668.80;;;3.70
74539;BMP180;66042;51.090;-115.340;2024-01-25T00:41:01;85666.00;;;3.70
74539;BMP180;66042;51.090;-115.340;2024-01-25T00:43:28;85662.40;;;3.70
74539;BMP180;66042;51.090;-115.340;2024-01-25T00:45:55;85661.80;;;3.60
74539;BMP180;66042;51.090;-115.340;2024-01-25T00:48:23;85665.40;;;3.60
74539;BMP180;66042;51.090;-115.340;2024-01-25T00:50:50;85659.00;;;3.50
74539;BMP180;66042;51.090;-115.340;2024-01-25T00:53:17;85656.00;;;3.40
74539;BMP180;66042;51.090;-115.340;2024-01-25T00:55:45;85658.60;;;3.30
74539;BMP180;66042;51.090;-115.340;2024-01-25T00:58:12;85658.20;;;3.20
74539;BMP180;66042;51.090;-115.340;2024-01-25T01:00:39;85659.40;;;3.10
74539;BMP180;66042;51.090;-115.340;2024-01-25T01:03:07;85662.80;;;3.00
74539;BMP180;66042;51.090;-115.340;2024-01-25T01:05:35;85661.60;;;3.00
74539;BMP180;66042;51.090;-115.340;2024-01-25T01:08:02;85659.80;;;2.92
74539;BMP180;66042;51.090;-115.340;2024-01-25T01:10:29;85661.20;;;2.90
74539;BMP180;66042;51.090;-115.340;2024-01-25T01:12:56;85659.80;;;2.90
74539;BMP180;66042;51.090;-115.340;2024-01-25T01:15:22;85655.00;;;2.90
74539;BMP180;66042;51.090;-115.340;2024-01-25T01:17:49;85654.20;;;2.90
74539;BMP180;66042;51.090;-115.340;2024-01-25T01:20:17;85650.60;;;2.90
74539;BMP180;66042;51.090;-115.340;2024-01-25T01:22:44;85644.20;;;2.90
74539;BMP180;66042;51.090;-115.340;2024-01-25T01:25:11;85646.20;;;2.90
74539;BMP180;66042;51.090;-115.340;2024-01-25T01:27:38;85651.00;;;2.90
74539;BMP180;66042;51.090;-115.340;2024-01-25T01:30:05;85648.20;;;2.90
74539;BMP180;66042;51.090;-115.340;2024-01-25T01:32:35;85656.20;;;2.90
74539;BMP180;66042;51.090;-115.340;2024-01-25T01:35:02;85647.60;;;2.90
74539;BMP180;66042;51.090;-115.340;2024-01-25T01:37:28;85643.60;;;2.90
74539;BMP180;66042;51.090;-115.340;2024-01-25T01:39:56;85645.40;;;2.90
74539;BMP180;66042;51.090;-115.340;2024-01-25T01:42:24;85637.40;;;2.88
74539;BMP180;66042;51.090;-115.340;2024-01-25T01:44:53;85631.20;;;2.80
74539;BMP180;66042;51.090;-115.340;2024-01-25T01:47:20;85632.20;;;2.80
74539;BMP180;66042;51.090;-115.340;2024-01-25T01:49:48;85632.00;;;2.74
74539;BMP180;66042;51.090;-115.340;2024-01-25T01:52:16;85634.20;;;2.70
74539;BMP180;66042;51.090;-115.340;2024-01-25T01:54:46;85631.60;;;2.70
74539;BMP180;66042;51.090;-115.340;2024-01-25T01:57:13;85633.60;;;2.70
74539;BMP180;66042;51.090;-115.340;2024-01-25T01:59:40;85637.60;;;2.70
74539;BMP180;66042;51.090;-115.340;2024-01-25T02:02:07;85639.40;;;2.60
74539;BMP180;66042;51.090;-115.340;2024-01-25T02:04:34;85633.40;;;2.60
74539;BMP180;66042;51.090;-115.340;2024-01-25T02:07:02;85636.40;;;2.60
74539;BMP180;66042;51.090;-115.340;2024-01-25T02:09:29;85630.00;;;2.54
74539;BMP180;66042;51.090;-115.340;2024-01-25T02:12:03;85628.20;;;2.50
74539;BMP180;66042;51.090;-115.340;2024-01-25T02:14:31;85623.60;;;2.50
74539;BMP180;66042;51.090;-115.340;2024-01-25T02:16:58;85623.80;;;2.46
74539;BMP180;66042;51.090;-115.340;2024-01-25T02:19:26;85624.80;;;2.40
74539;BMP180;66042;51.090;-115.340;2024-01-25T02:21:54;85626.40;;;2.40
74539;BMP180;66042;51.090;-115.340;2024-01-25T02:24:24;85629.40;;;2.30
74539;BMP180;66042;51.090;-115.340;2024-01-25T02:26:51;85630.00;;;2.30
74539;BMP180;66042;51.090;-115.340;2024-01-25T02:29:18;85627.60;;;2.20
74539;BMP180;66042;51.090;-115.340;2024-01-25T02:31:46;85624.00;;;2.20
74539;BMP180;66042;51.090;-115.340;2024-01-25T02:34:13;85630.60;;;2.20
74539;BMP180;66042;51.090;-115.340;2024-01-25T02:36:40;85620.00;;;2.10
74539;BMP180;66042;51.090;-115.340;2024-01-25T02:39:06;85621.40;;;2.10
74539;BMP180;66042;51.090;-115.340;2024-01-25T02:41:33;85623.80;;;2.10
74539;BMP180;66042;51.090;-115.340;2024-01-25T02:44:01;85620.00;;;2.00
74539;BMP180;66042;51.090;-115.340;2024-01-25T02:46:27;85619.20;;;2.00
74539;BMP180;66042;51.090;-115.340;2024-01-25T02:48:54;85627.20;;;1.90
74539;BMP180;66042;51.090;-115.340;2024-01-25T02:51:21;85628.60;;;1.90
74539;BMP180;66042;51.090;-115.340;2024-01-25T02:53:48;85627.80;;;1.90
74539;BMP180;66042;51.090;-115.340;2024-01-25T02:56:15;85630.20;;;1.88
74539;BMP180;66042;51.090;-115.340;2024-01-25T02:58:42;85625.00;;;1.90
74539;BMP180;66042;51.090;-115.340;2024-01-25T03:01:09;85624.00;;;1.90
74539;BMP180;66042;51.090;-115.340;2024-01-25T03:03:36;85625.40;;;1.82
74539;BMP180;66042;51.090;-115.340;2024-01-25T03:06:05;85623.80;;;1.80
74539;BMP180;66042;51.090;-115.340;2024-01-25T03:08:32;85633.00;;;1.80
74539;BMP180;66042;51.090;-115.340;2024-01-25T03:10:59;85629.40;;;1.70
74539;BMP180;66042;51.090;-115.340;2024-01-25T03:13:26;85630.60;;;1.70
74539;BMP180;66042;51.090;-115.340;2024-01-25T03:15:53;85635.00;;;1.70
74539;BMP180;66042;51.090;-115.340;2024-01-25T03:18:21;85636.40;;;1.70
74539;BMP180;66042;51.090;-115.340;2024-01-25T03:20:47;85634.80;;;1.70
74539;BMP180;66042;51.090;-115.340;2024-01-25T03:23:17;85636.00;;;1.70
74539;BMP180;66042;51.090;-115.340;2024-01-25T03:25:44;85628.80;;;1.70
74539;BMP180;66042;51.090;-115.340;2024-01-25T03:28:11;85631.40;;;1.62
74539;BMP180;66042;51.090;-115.340;2024-01-25T03:30:39;85627.60;;;1.60
74539;BMP180;66042;51.090;-115.340;2024-01-25T03:33:06;85625.60;;;1.50
74539;BMP180;66042;51.090;-115.340;2024-01-25T03:35:33;85631.60;;;1.50
74539;BMP180;66042;51.090;-115.340;2024-01-25T03:38:00;85626.80;;;1.50
74539;BMP180;66042;51.090;-115.340;2024-01-25T03:40:27;85626.20;;;1.50
74539;BMP180;66042;51.090;-115.340;2024-01-25T03:42:54;85625.60;;;1.44
74539;BMP180;66042;51.090;-115.340;2024-01-25T03:45:21;85623.60;;;1.40
74539;BMP180;66042;51.090;-115.340;2024-01-25T03:47:48;85625.80;;;1.40
74539;BMP180;66042;51.090;-115.340;2024-01-25T03:50:15;85624.80;;;1.38
74539;BMP180;66042;51.090;-115.340;2024-01-25T03:52:42;85629.60;;;1.38
74539;BMP180;66042;51.090;-115.340;2024-01-25T03:55:09;85627.60;;;1.36
74539;BMP180;66042;51.090;-115.340;2024-01-25T03:57:36;85635.00;;;1.38
74539;BMP180;66042;51.090;-115.340;2024-01-25T04:00:07;85630.60;;;1.32
74539;BMP180;66042;51.090;-115.340;2024-01-25T04:02:34;85635.80;;;1.30
74539;BMP180;66042;51.090;-115.340;2024-01-25T04:05:01;85637.60;;;1.24
74539;BMP180;66042;51.090;-115.340;2024-01-25T04:07:29;85637.80;;;1.20
74539;BMP180;66042;51.090;-115.340;2024-01-25T04:09:55;85643.40;;;1.14
74539;BMP180;66042;51.090;-115.340;2024-01-25T04:12:22;85646.60;;;1.10
74539;BMP180;66042;51.090;-115.340;2024-01-25T04:14:51;85641.20;;;1.10
74539;BMP180;66042;51.090;-115.340;2024-01-25T04:17:18;85641.40;;;1.00
74539;BMP180;66042;51.090;-115.340;2024-01-25T04:19:44;85641.20;;;1.00
74539;BMP180;66042;51.090;-115.340;2024-01-25T04:22:11;85645.40;;;1.00
74539;BMP180;66042;51.090;-115.340;2024-01-25T04:24:39;85642.00;;;0.90
74539;BMP180;66042;51.090;-115.340;2024-01-25T04:27:07;85645.40;;;0.90
74539;BMP180;66042;51.090;-115.340;2024-01-25T04:29:34;85645.20;;;1.00
74539;BMP180;66042;51.090;-115.340;2024-01-25T04:32:04;85650.20;;;1.02
74539;BMP180;66042;51.090;-115.340;2024-01-25T04:34:31;85649.20;;;1.10
74539;BMP180;66042;51.090;-115.340;2024-01-25T04:36:58;85641.20;;;1.10
74539;BMP180;66042;51.090;-115.340;2024-01-25T04:39:25;85645.20;;;1.12
74539;BMP180;66042;51.090;-115.340;2024-01-25T04:41:52;85647.40;;;1.20
74539;BMP180;66042;51.090;-115.340;2024-01-25T04:44:20;85642.40;;;1.20
74539;BMP180;66042;51.090;-115.340;2024-01-25T04:46:47;85638.00;;;1.20
74539;BMP180;66042;51.090;-115.340;2024-01-25T04:49:14;85642.20;;;1.20
74539;BMP180;66042;51.090;-115.340;2024-01-25T04:51:41;85649.40;;;1.20
74539;BMP180;66042;51.090;-115.340;2024-01-25T04:54:08;85648.20;;;1.20
74539;BMP180;66042;51.090;-115.340;2024-01-25T04:56:39;85653.80;;;1.20
74539;BMP180;66042;51.090;-115.340;2024-01-25T04:59:05;85654.20;;;1.20
74539;BMP180;66042;51.090;-115.340;2024-01-25T05:01:32;85652.20;;;1.20
74539;BMP180;66042;51.090;-115.340;2024-01-25T05:04:00;85653.00;;;1.16
74539;BMP180;66042;51.090;-115.340;2024-01-25T05:06:27;85657.80;;;1.10
74539;BMP180;66042;51.090;-115.340;2024-01-25T05:08:53;85657.80;;;1.14
74539;BMP180;66042;51.090;-115.340;2024-01-25T05:11:21;85656.80;;;1.10
74539;BMP180;66042;51.090;-115.340;2024-01-25T05:13:48;85655.40;;;1.10
74539;BMP180;66042;51.090;-115.340;2024-01-25T05:16:14;85655.40;;;1.10
74539;BMP180;66042;51.090;-115.340;2024-01-25T05:18:41;85656.60;;;1.10
74539;BMP180;66042;51.090;-115.340;2024-01-25T05:21:08;85649.00;;;1.10
74539;BMP180;66042;51.090;-115.340;2024-01-25T05:23:35;85659.60;;;1.10
74539;BMP180;66042;51.090;-115.340;2024-01-25T05:26:02;85665.40;;;1.20
74539;BMP180;66042;51.090;-115.340;2024-01-25T05:28:29;85674.20;;;1.20
74539;BMP180;66042;51.090;-115.340;2024-01-25T05:30:56;85676.40;;;1.20
74539;BMP180;66042;51.090;-115.340;2024-01-25T05:33:23;85677.40;;;1.20
74539;BMP180;66042;51.090;-115.340;2024-01-25T05:35:50;85683.80;;;1.20
74539;BMP180;66042;51.090;-115.340;2024-01-25T05:38:16;85687.80;;;1.20
74539;BMP180;66042;51.090;-115.340;2024-01-25T05:40:43;85688.20;;;1.20
74539;BMP180;66042;51.090;-115.340;2024-01-25T05:43:10;85693.00;;;1.22
74539;BMP180;66042;51.090;-115.340;2024-01-25T05:45:37;85689.80;;;1.28
74539;BMP180;66042;51.090;-115.340;2024-01-25T05:48:04;85695.20;;;1.30
